Muskegon, Michigan
Current Conditions -  °F | °C
As of 2:55 PM on Thursday 23 Oct 2014 (Local Time) from KMKG Reporting Station
Scattered Clouds Scattered Clouds  
Wind Chill: 57°   Ceiling: Unl
Heat Index: 57°   Visibility: 10mi
Dew Point: 44°   Wind: 13mph
Humidity: 62%   Direction: 190°S
Pressure: 30.16"   Gusts: NA
Location:  43.23°N, 86.24°W
Report Text: KMKG 231855Z 19011KT 10SM SCT025 14/07 A3016 RMK AO2 SLP217 T01390067
Loading
Personal Weather Stations






























Interactive Weather Map
Tropical Storm Tracking
New forecast layout! Learn more

10-Day Weather Forecast

Advertisements
Track Severe Weather on mobile